Time;durP1;ratioP1;P1;durP2;ratioP2;P2;SDS_P1;SDS_P2;PMS_P1;PMS_P2;Temp;Humidity;BMP_temperature;BMP_pressure;BME280_temperature;BME280_humidity;BME280_pressure;Samples;Min_cycle;Max_cycle;Signal;HPM_P1;HPM_P2
2022/09/22 00:00:16;;;;;;;5.35;4.85;;;;;;;10.43;64.12;94852.94;4209811;28;20135;-65
2022/09/22 00:02:18;;;;;;;6.75;5.10;;;;;;;10.50;63.89;94855.78;4211934;28;20040;-66
2022/09/22 00:04:20;;;;;;;5.95;5.35;;;;;;;10.51;63.77;94852.19;4212783;28;20036;-64
2022/09/22 00:06:28;;;;;;;5.25;4.75;;;;;;;10.50;63.64;94853.16;4212900;28;20132;-63
2022/09/22 00:08:32;;;;;;;5.07;4.57;;;;;;;10.47;63.34;94854.28;4210221;28;20055;-65
2022/09/22 00:10:33;;;;;;;;;;;;;;;10.48;63.36;94850.69;4212834;28;20071;-63
2022/09/22 00:12:35;;;;;;;5.47;4.55;;;;;;;10.44;63.62;94855.41;4212139;28;20011;-58
2022/09/22 00:14:37;;;;;;;5.07;4.40;;;;;;;10.44;63.23;94850.19;4212058;28;20147;-56
2022/09/22 00:16:48;;;;;;;5.63;5.05;;;;;;;10.30;64.18;94849.91;4210148;28;20086;-58
2022/09/22 00:18:50;;;;;;;5.80;4.38;;;;;;;10.22;63.60;94848.88;4212354;28;20048;-65
2022/09/22 00:20:51;;;;;;;5.53;4.95;;;;;;;10.10;64.21;94849.25;4209941;28;20056;-66
2022/09/22 00:22:53;;;;;;;4.68;4.22;;;;;;;10.11;63.84;94849.13;4212222;28;20044;-64
2022/09/22 00:24:55;;;;;;;4.80;4.28;;;;;;;10.14;63.98;94846.19;4212805;28;20481;-65
2022/09/22 00:26:58;;;;;;;4.88;4.32;;;;;;;10.20;64.43;94845.56;4205284;28;20481;-65
2022/09/22 00:29:00;;;;;;;5.55;4.63;;;;;;;10.28;63.92;94842.16;4205083;28;20150;-65
2022/09/22 00:31:10;;;;;;;4.88;4.13;;;;;;;10.29;64.12;94843.03;4210447;28;20135;-65
2022/09/22 00:33:12;;;;;;;4.70;4.13;;;;;;;10.30;63.77;94847.28;4212471;28;20056;-66
2022/09/22 00:35:14;;;;;;;5.07;4.57;;;;;;;10.30;63.11;94844.69;4212691;28;20580;-65
2022/09/22 00:37:15;;;;;;;4.82;3.90;;;;;;;10.28;63.72;94843.97;4212184;28;20129;-65
2022/09/22 00:39:17;;;;;;;5.07;4.10;;;;;;;10.25;63.64;94845.94;4212555;28;20048;-64
2022/09/22 00:41:31;;;;;;;5.63;4.10;;;;;;;10.21;63.78;94852.44;4212030;28;20079;-64
2022/09/22 00:43:35;;;;;;;4.38;3.95;;;;;;;10.25;63.86;94852.97;4212351;28;20136;-66
2022/09/22 00:45:37;;;;;;;4.70;4.28;;;;;;;10.28;63.35;94854.44;4195687;28;20143;-65
2022/09/22 00:47:40;;;;;;;5.85;4.45;;;;;;;10.29;63.25;94850.88;4209095;28;20044;-66
2022/09/22 00:49:44;;;;;;;;;;;;;;;10.30;63.53;94850.72;4198718;28;20052;-66
2022/09/22 00:51:46;;;;;;;5.30;4.40;;;;;;;10.32;63.32;94845.34;4202471;28;19999;-65
2022/09/22 00:53:48;;;;;;;5.05;4.22;;;;;;;10.31;63.57;94849.78;4210829;28;20087;-65
2022/09/22 00:55:58;;;;;;;5.43;4.20;;;;;;;10.28;63.55;94854.44;4211952;28;20048;-65
2022/09/22 00:58:01;;;;;;;4.22;3.63;;;;;;;10.24;63.67;94839.06;4202872;28;20130;-64
2022/09/22 01:00:05;;;;;;;4.60;3.85;;;;;;;10.23;63.58;94847.88;4210086;28;20618;-64
2022/09/22 01:02:07;;;;;;;5.53;3.90;;;;;;;10.29;63.25;94838.63;4210412;28;20054;-66
2022/09/22 01:04:09;;;;;;;4.57;3.80;;;;;;;10.29;63.15;94837.78;4210890;28;20392;-65
2022/09/22 01:06:15;;;;;;;4.72;4.18;;;;;;;10.25;63.74;94834.63;4210291;28;20082;-66
2022/09/22 01:08:18;;;;;;;4.75;4.13;;;;;;;10.22;63.49;94833.16;4210807;28;20048;-63
2022/09/22 01:10:20;;;;;;;4.53;4.00;;;;;;;10.14;63.62;94834.91;4210285;28;20561;-65
2022/09/22 01:12:23;;;;;;;4.70;3.58;;;;;;;10.12;63.79;94832.41;4211190;28;20515;-65
2022/09/22 01:14:49;;;;;;;4.80;3.67;;;;;;;10.17;63.89;94832.78;4210751;28;20147;-65
2022/09/22 01:17:03;;;;;;;3.85;3.45;;;;;;;10.20;63.34;94832.47;4210527;28;20139;-66
2022/09/22 01:19:32;;;;;;;4.70;4.18;;;;;;;10.05;63.93;94832.22;4209455;28;20139;-65
2022/09/22 01:21:42;;;;;;;4.57;3.70;;;;;;;9.96;64.97;94830.53;4202582;28;20492;-65
2022/09/22 01:24:11;;;;;;;5.07;4.30;;;;;;;10.05;64.77;94839.25;4219492;28;20138;-65
2022/09/22 01:27:01;;;;;;;4.90;4.28;;;;;;;10.07;63.86;94826.00;4209940;28;20040;-65
2022/09/22 01:29:37;;;;;;;4.22;3.80;;;;;;;10.14;64.12;94825.25;4209181;28;20068;-66
2022/09/22 01:31:54;;;;;;;4.90;4.35;;;;;;;10.16;63.83;94828.53;4193033;28;20045;-66
2022/09/22 01:34:07;;;;;;;4.53;3.92;;;;;;;10.17;63.50;94822.31;4179608;28;20137;-66
2022/09/22 01:36:56;;;;;;;4.65;3.47;;;;;;;10.16;63.62;94828.53;4205446;28;20086;-64
2022/09/22 01:39:15;;;;;;;4.95;3.80;;;;;;;10.08;63.81;94828.47;4201639;28;20043;-65
2022/09/22 01:41:16;;;;;;;5.50;3.70;;;;;;;10.07;63.62;94815.53;4210834;28;20552;-65
2022/09/22 01:43:37;;;;;;;4.25;3.67;;;;;;;10.05;63.55;94821.75;4201809;28;20048;-65
2022/09/22 01:45:41;;;;;;;5.25;3.95;;;;;;;10.09;64.01;94826.66;4208709;28;20511;-66
2022/09/22 01:47:56;;;;;;;3.88;3.47;;;;;;;10.08;63.48;94825.84;4209878;28;20135;-66
2022/09/22 01:50:00;;;;;;;4.22;3.65;;;;;;;10.10;63.61;94829.13;4210808;28;20048;-66
2022/09/22 01:52:07;;;;;;;4.18;3.53;;;;;;;10.07;63.84;94826.84;4210437;28;20075;-66
2022/09/22 01:54:24;;;;;;;5.32;3.90;;;;;;;10.06;63.78;94825.19;4196807;28;20139;-64
2022/09/22 01:56:28;;;;;;;4.45;3.85;;;;;;;10.03;64.17;94822.88;4198671;28;20139;-65
2022/09/22 01:58:36;;;;;;;5.00;3.65;;;;;;;10.02;64.31;94821.22;4209738;28;20094;-64
2022/09/22 02:00:41;;;;;;;4.80;3.80;;;;;;;10.04;64.16;94811.41;4207387;28;20131;-64
2022/09/22 02:02:53;;;;;;;7.25;3.63;;;;;;;9.99;64.33;94826.78;4209423;28;20135;-65
2022/09/22 02:04:57;;;;;;;4.95;3.97;;;;;;;9.96;64.28;94820.06;4210180;28;20540;-65
2022/09/22 02:07:03;;;;;;;4.43;3.70;;;;;;;10.02;64.12;94819.44;4209756;28;20062;-64
2022/09/22 02:09:06;;;;;;;5.00;4.28;;;;;;;10.06;64.22;94822.56;4199222;28;20515;-63
2022/09/22 02:11:12;;;;;;;4.85;4.00;;;;;;;9.94;64.30;94821.19;4210523;28;20068;-65
2022/09/22 02:13:14;;;;;;;5.10;4.22;;;;;;;9.93;64.32;94824.75;4209636;28;20048;-65
2022/09/22 02:17:37;;;;;;;4.78;4.32;;;;;;;9.80;65.16;94823.34;4198786;28;20524;-64
2022/09/22 02:19:40;;;;;;;5.93;4.70;;;;;;;9.83;65.31;94824.84;4203810;28;20677;-66
2022/09/22 02:21:43;;;;;;;4.88;4.30;;;;;;;9.82;64.96;94823.19;4206757;28;20052;-65
2022/09/22 02:23:46;;;;;;;6.50;4.28;;;;;;;9.82;64.82;94818.78;4205492;28;20051;-65
2022/09/22 02:25:48;;;;;;;6.05;3.92;;;;;;;9.86;64.52;94815.88;4199618;28;20091;-65
2022/09/22 02:27:52;;;;;;;5.28;4.75;;;;;;;9.82;65.04;94823.19;4202439;28;20127;-66
2022/09/22 02:30:03;;;;;;;5.80;5.07;;;;;;;9.81;65.28;94818.97;4209628;28;20095;-66
2022/09/22 02:32:09;;;;;;;4.82;4.35;;;;;;;9.79;65.22;94819.09;4209780;28;20040;-68
2022/09/22 02:34:11;;;;;;;5.10;4.57;;;;;;;9.80;65.09;94820.72;4210479;28;20135;-65
2022/09/22 02:36:22;;;;;;;6.22;4.55;;;;;;;9.82;65.26;94810.94;4208069;28;20055;-65
2022/09/22 02:38:29;;;;;;;4.90;4.40;;;;;;;9.79;64.98;94819.09;4209193;28;20076;-63
2022/09/22 02:40:43;;;;;;;5.10;4.60;;;;;;;9.77;65.47;94813.19;4208434;28;20087;-64
2022/09/22 02:42:55;;;;;;;9.15;5.10;;;;;;;9.67;65.96;94819.47;4203742;28;20072;-66
2022/09/22 02:45:14;;;;;;;5.50;5.00;;;;;;;9.63;66.04;94825.00;4194722;28;20075;-66
2022/09/22 02:47:43;;;;;;;5.65;5.13;;;;;;;9.63;66.38;94822.38;4210517;28;20127;-66
2022/09/22 02:49:46;;;;;;;6.00;5.40;;;;;;;9.61;66.42;94826.13;4204782;28;20482;-67
2022/09/22 02:51:48;;;;;;;6.35;5.75;;;;;;;9.52;66.97;94829.63;4212603;28;20078;-67
2022/09/22 02:53:49;;;;;;;5.80;5.20;;;;;;;9.54;66.74;94832.94;4212642;28;20126;-67
2022/09/22 02:55:51;;;;;;;7.50;5.28;;;;;;;9.56;66.46;94831.00;4208368;28;20048;-65
2022/09/22 02:57:53;;;;;;;5.82;5.22;;;;;;;9.54;66.61;94840.78;4206419;28;20110;-64
2022/09/22 02:59:55;;;;;;;6.63;6.03;;;;;;;9.50;67.31;94829.78;4209131;28;20044;-65
2022/09/22 03:01:56;;;;;;;6.53;5.25;;;;;;;9.50;67.46;94839.44;4207583;28;20480;-66
2022/09/22 03:03:58;;;;;;;6.75;6.15;;;;;;;9.47;67.78;94837.13;4207926;28;20613;-64
2022/09/22 03:06:00;;;;;;;6.85;6.15;;;;;;;9.41;68.67;94839.34;4210099;28;20091;-65
2022/09/22 03:08:01;;;;;;;7.60;6.80;;;;;;;9.47;68.41;94837.94;4209095;28;20556;-65
2022/09/22 03:10:04;;;;;;;8.65;6.53;;;;;;;9.50;67.59;94842.03;4207759;28;20055;-66
2022/09/22 03:12:06;;;;;;;7.18;6.47;;;;;;;9.55;67.79;94845.03;4212060;28;20126;-65
2022/09/22 03:14:07;;;;;;;7.38;6.07;;;;;;;9.60;67.96;94840.19;4207295;28;20087;-66
2022/09/22 03:16:09;;;;;;;6.85;6.20;;;;;;;9.48;67.90;94838.75;4208678;28;20492;-66
2022/09/22 03:18:11;;;;;;;6.82;6.13;;;;;;;9.53;67.63;94831.28;4209314;28;20462;-67
2022/09/22 03:20:14;;;;;;;7.25;6.55;;;;;;;9.53;68.08;94842.56;4207294;28;20076;-65
2022/09/22 03:22:15;;;;;;;7.00;6.30;;;;;;;9.51;68.22;94841.91;4205916;28;20278;-65
2022/09/22 03:24:17;;;;;;;7.38;6.65;;;;;;;9.47;68.09;94843.16;4199656;28;20048;-65
2022/09/22 03:26:19;;;;;;;8.30;6.53;;;;;;;9.41;68.46;94838.53;4206927;28;20092;-65
2022/09/22 03:28:20;;;;;;;6.88;6.15;;;;;;;9.46;68.31;94836.28;4212504;28;20048;-66
2022/09/22 03:30:22;;;;;;;6.47;5.88;;;;;;;9.41;68.08;94849.81;4204541;28;20143;-67
2022/09/22 03:32:24;;;;;;;7.38;6.28;;;;;;;9.47;68.06;94842.34;4196787;28;20049;-67
2022/09/22 03:34:25;;;;;;;6.35;5.75;;;;;;;9.37;68.77;94848.44;4197529;28;20051;-65
2022/09/22 03:36:27;;;;;;;6.82;6.13;;;;;;;9.46;67.77;94838.06;4212494;28;20449;-59
2022/09/22 03:38:29;;;;;;;7.35;5.50;;;;;;;9.45;67.76;94846.91;4212429;28;20505;-59
2022/09/22 03:40:30;;;;;;;6.57;5.82;;;;;;;9.43;68.16;94839.19;4211502;28;20087;-58
2022/09/22 03:42:34;;;;;;;6.68;6.07;;;;;;;9.40;67.82;94845.56;4208595;28;20170;-60
2022/09/22 03:44:35;;;;;;;7.72;6.93;;;;;;;9.42;68.14;94838.38;4209343;28;20072;-68
2022/09/22 03:46:37;;;;;;;7.18;6.47;;;;;;;9.44;68.53;94838.22;4208987;28;20072;-68
2022/09/22 03:48:39;;;;;;;7.15;6.45;;;;;;;9.42;68.10;94835.78;4210737;28;20051;-68
2022/09/22 03:50:45;;;;;;;7.32;6.55;;;;;;;9.49;68.19;94832.56;4210987;28;20048;-65
2022/09/22 03:52:47;;;;;;;6.85;6.15;;;;;;;9.37;68.14;94834.56;4212254;28;20054;-67
2022/09/22 03:54:50;;;;;;;7.72;6.90;;;;;;;9.28;68.92;94846.72;4213140;28;20530;-65
2022/09/22 03:56:52;;;;;;;7.72;7.03;;;;;;;9.21;69.55;94843.06;4210655;28;20138;-65
2022/09/22 03:58:54;;;;;;;9.32;6.93;;;;;;;9.25;69.06;94839.19;4210729;28;20747;-63
2022/09/22 04:00:55;;;;;;;8.93;7.20;;;;;;;9.23;69.42;94847.19;4208436;28;20052;-67
2022/09/22 04:02:57;;;;;;;7.68;6.88;;;;;;;9.25;69.45;94849.66;4211459;28;20052;-57
2022/09/22 04:04:59;;;;;;;8.52;7.72;;;;;;;9.30;68.58;94842.19;4211718;28;20157;-60
2022/09/22 04:07:02;;;;;;;7.75;6.95;;;;;;;9.36;68.96;94844.22;4212950;28;20086;-58
2022/09/22 04:09:08;;;;;;;8.43;7.63;;;;;;;9.47;68.36;94847.59;4203764;28;20050;-59
2022/09/22 04:11:10;;;;;;;7.07;6.38;;;;;;;9.51;67.94;94846.31;4210334;28;20048;-58
2022/09/22 04:13:13;;;;;;;8.50;7.53;;;;;;;9.59;67.78;94854.22;4210808;28;20139;-58
2022/09/22 04:15:15;;;;;;;8.57;6.82;;;;;;;9.46;68.49;94851.97;4209027;28;20066;-59
2022/09/22 04:17:19;;;;;;;9.32;7.07;;;;;;;9.40;68.64;94847.34;4209648;28;20089;-57
2022/09/22 04:19:21;;;;;;;9.07;7.25;;;;;;;9.45;68.03;94852.94;4211771;28;20052;-59
2022/09/22 04:21:23;;;;;;;8.05;7.05;;;;;;;9.49;68.55;94856.91;4211334;28;20093;-58
2022/09/22 04:23:25;;;;;;;7.57;6.88;;;;;;;9.50;68.22;94848.09;4210291;28;20051;-58
2022/09/22 04:25:27;;;;;;;9.00;7.05;;;;;;;9.51;68.30;94851.56;4209358;28;20059;-60
2022/09/22 04:27:29;;;;;;;7.78;6.60;;;;;;;9.53;67.81;94842.56;4211933;28;20052;-58
2022/09/22 04:29:31;;;;;;;8.45;6.88;;;;;;;9.63;67.82;94840.69;4212672;28;20066;-60
2022/09/22 04:31:33;;;;;;;8.60;7.10;;;;;;;9.67;67.58;94849.06;4207906;28;20048;-59
2022/09/22 04:33:34;;;;;;;8.15;6.78;;;;;;;9.65;67.66;94851.00;4207697;28;20135;-58
2022/09/22 04:35:36;;;;;;;8.50;7.28;;;;;;;9.68;67.36;94845.50;4207441;28;20076;-60
2022/09/22 04:37:38;;;;;;;7.57;6.65;;;;;;;9.69;67.88;94847.13;4202575;28;20079;-56
2022/09/22 04:39:40;;;;;;;7.85;7.05;;;;;;;9.68;67.90;94847.25;4204824;28;20084;-58
2022/09/22 04:41:42;;;;;;;7.38;6.47;;;;;;;9.69;67.84;94854.97;4210796;28;20068;-59
2022/09/22 04:43:43;;;;;;;7.65;6.82;;;;;;;9.79;67.37;94852.28;4211996;28;20588;-57
2022/09/22 04:45:47;;;;;;;7.10;6.38;;;;;;;9.79;67.30;94849.69;4210792;28;20050;-57
2022/09/22 04:47:50;;;;;;;8.15;6.85;;;;;;;9.65;67.69;94851.00;4211897;28;20044;-58
2022/09/22 04:49:52;;;;;;;7.93;7.13;;;;;;;9.73;68.26;94848.47;4210076;28;20151;-56
2022/09/22 04:51:54;;;;;;;7.40;6.60;;;;;;;9.82;67.78;94858.03;4210349;28;20047;-58
2022/09/22 04:53:55;;;;;;;8.23;7.43;;;;;;;9.84;66.80;94852.66;4211531;28;20377;-58
2022/09/22 04:55:57;;;;;;;8.25;7.03;;;;;;;9.91;67.36;94858.09;4211890;28;20496;-59
2022/09/22 04:57:59;;;;;;;8.55;7.25;;;;;;;9.92;67.02;94851.91;4204193;28;20176;-60
2022/09/22 05:00:01;;;;;;;7.90;7.15;;;;;;;9.86;67.51;94848.09;4208393;28;20078;-57
2022/09/22 05:02:02;;;;;;;7.78;6.90;;;;;;;9.70;67.75;94856.63;4204777;28;20072;-59
2022/09/22 05:04:04;;;;;;;8.52;7.30;;;;;;;9.68;67.82;94850.72;4211719;28;20131;-60
2022/09/22 05:06:06;;;;;;;8.93;7.38;;;;;;;9.73;68.17;94852.88;4211649;28;20143;-58
2022/09/22 05:08:09;;;;;;;9.20;7.93;;;;;;;9.70;67.89;94846.16;4210711;28;20551;-60
2022/09/22 05:10:12;;;;;;;8.00;7.20;;;;;;;9.68;68.31;94850.72;4207875;28;20397;-60
2022/09/22 05:12:13;;;;;;;9.20;7.93;;;;;;;9.75;68.10;94849.16;4196064;28;20372;-58
2022/09/22 05:14:16;;;;;;;9.23;7.35;;;;;;;9.70;68.15;94848.78;4195594;28;20155;-60
2022/09/22 05:16:23;;;;;;;8.07;7.18;;;;;;;9.83;67.96;94851.03;4195877;28;20052;-59
2022/09/22 05:18:25;;;;;;;7.78;7.03;;;;;;;9.86;67.14;94853.31;4207160;28;20629;-58
2022/09/22 05:20:27;;;;;;;8.40;7.43;;;;;;;9.83;67.92;94849.22;4203511;28;20054;-58
2022/09/22 05:22:29;;;;;;;8.23;7.43;;;;;;;9.96;67.55;94848.84;4199917;28;20539;-59
2022/09/22 05:24:31;;;;;;;7.75;6.95;;;;;;;10.07;67.26;94854.78;4197694;28;20143;-60
2022/09/22 05:26:52;;;;;;;7.95;7.15;;;;;;;10.15;67.10;94857.47;4198570;28;20143;-60
2022/09/22 05:28:54;;;;;;;8.18;7.32;;;;;;;10.15;66.81;94855.69;4214176;28;20138;-59
2022/09/22 05:30:55;;;;;;;7.82;7.03;;;;;;;10.24;66.85;94851.34;4202237;28;20048;-58
2022/09/22 05:32:57;;;;;;;10.25;7.55;;;;;;;10.20;66.75;94857.84;4208450;28;20063;-60
2022/09/22 05:34:59;;;;;;;8.73;7.55;;;;;;;10.22;66.71;94861.13;4200971;28;20091;-59
2022/09/22 05:37:00;;;;;;;8.70;7.88;;;;;;;10.17;66.69;94858.94;4211581;28;20135;-58
2022/09/22 05:39:02;;;;;;;8.80;7.90;;;;;;;10.07;67.46;94866.09;4211554;28;20055;-60
2022/09/22 05:41:04;;;;;;;9.38;8.20;;;;;;;9.96;68.01;94863.69;4211155;28;20153;-58
2022/09/22 05:43:06;;;;;;;8.82;7.75;;;;;;;10.05;67.96;94870.66;4211469;28;20143;-59
2022/09/22 05:45:08;;;;;;;9.20;8.30;;;;;;;10.13;67.74;94868.13;4209526;28;20139;-58
2022/09/22 05:47:09;;;;;;;8.32;6.93;;;;;;;10.21;66.96;94859.47;4199117;28;20075;-57
2022/09/22 05:49:11;;;;;;;10.02;7.53;;;;;;;10.17;66.91;94864.19;4210441;28;20075;-59
2022/09/22 05:51:13;;;;;;;8.05;6.78;;;;;;;10.22;66.43;94864.56;4211358;28;20549;-58
2022/09/22 05:53:15;;;;;;;9.30;7.38;;;;;;;10.38;65.99;94865.69;4205760;28;20135;-59
2022/09/22 05:55:17;;;;;;;9.95;7.75;;;;;;;10.50;65.72;94866.28;4204037;28;20071;-55
2022/09/22 05:57:24;;;;;;;6.20;5.60;;;;;;;10.42;65.23;94859.16;4211534;28;20138;-57
2022/09/22 05:59:25;;;;;;;6.07;4.95;;;;;;;10.42;64.96;94859.16;4209924;28;20072;-59
2022/09/22 06:01:27;;;;;;;7.93;7.13;;;;;;;10.57;65.19;94862.03;4209944;28;20138;-58
2022/09/22 06:03:29;;;;;;;8.07;7.10;;;;;;;10.63;64.52;94869.28;4208141;28;20115;-59
2022/09/22 06:05:31;;;;;;;7.15;6.05;;;;;;;10.59;64.62;94865.34;4208002;28;20127;-59
2022/09/22 06:07:33;;;;;;;7.47;6.57;;;;;;;10.51;64.97;94873.94;4206211;28;20102;-60
2022/09/22 06:09:35;;;;;;;7.25;6.57;;;;;;;10.50;64.80;94864.47;4206452;28;20052;-59
2022/09/22 06:11:37;;;;;;;10.10;7.07;;;;;;;10.55;64.63;94862.19;4207830;28;20150;-60
2022/09/22 06:13:39;;;;;;;10.50;6.90;;;;;;;10.67;64.65;94862.75;4209458;28;20526;-59
2022/09/22 06:15:43;;;;;;;8.63;7.05;;;;;;;10.80;64.01;94863.16;4204764;28;20057;-59
2022/09/22 06:17:45;;;;;;;9.95;7.53;;;;;;;10.56;64.51;94865.63;4197925;28;20056;-60
2022/09/22 06:19:49;;;;;;;9.68;6.88;;;;;;;10.41;65.02;94860.97;4208581;28;20048;-60
2022/09/22 06:21:51;;;;;;;;;;;;;;;10.56;65.15;94865.63;4210997;28;20080;-60
2022/09/22 06:23:53;;;;;;;6.72;6.03;;;;;;;10.65;64.35;94876.00;4211587;28;19994;-56
2022/09/22 06:25:57;;;;;;;7.75;6.57;;;;;;;10.72;63.70;94872.78;4211023;28;20051;-61
2022/09/22 06:28:01;;;;;;;7.90;6.18;;;;;;;10.54;64.38;94871.03;4214553;28;20040;-61
2022/09/22 06:30:03;;;;;;;7.93;7.03;;;;;;;10.54;64.98;94873.66;4204645;28;20127;-59
2022/09/22 06:32:09;;;;;;;10.40;7.57;;;;;;;10.43;65.00;94882.59;4203509;28;20132;-60
2022/09/22 06:34:10;;;;;;;10.55;7.20;;;;;;;10.58;64.87;94879.38;4214402;28;20097;-58
2022/09/22 06:36:14;;;;;;;8.27;5.75;;;;;;;10.69;64.32;94873.06;4212767;28;20099;-59
2022/09/22 06:38:16;;;;;;;;;;;;;;;10.74;64.37;94870.81;4210867;28;20097;-60
2022/09/22 06:40:17;;;;;;;9.25;6.30;;;;;;;10.70;64.71;94877.34;4206817;28;20011;-59
2022/09/22 06:42:19;;;;;;;8.57;5.78;;;;;;;10.63;64.67;94870.09;4214386;28;20055;-57
2022/09/22 06:44:21;;;;;;;8.05;6.57;;;;;;;10.65;64.73;94876.00;4213248;28;20044;-60
2022/09/22 06:46:27;;;;;;;11.38;6.40;;;;;;;10.64;64.86;94874.34;4203471;28;20119;-58
2022/09/22 06:48:30;;;;;;;8.55;6.53;;;;;;;10.31;66.61;94883.00;4213221;28;20131;-58
2022/09/22 06:50:32;;;;;;;12.82;6.88;;;;;;;9.98;67.38;94880.91;4214375;28;20097;-57
2022/09/22 06:52:35;;;;;;;9.50;7.18;;;;;;;9.94;67.77;94876.94;4213990;28;20048;-58
2022/09/22 06:54:41;;;;;;;11.27;8.18;;;;;;;9.97;67.85;94881.06;4213067;28;20053;-57
2022/09/22 06:56:43;;;;;;;8.68;6.95;;;;;;;10.16;67.01;94870.41;4213773;28;20158;-58
2022/09/22 06:58:45;;;;;;;7.25;6.00;;;;;;;10.33;66.65;94865.34;4213810;28;20871;-58
2022/09/22 07:01:07;;;;;;;7.80;6.47;;;;;;;10.52;65.55;94873.00;4212628;28;20459;-57
2022/09/22 07:03:21;;;;;;;8.57;6.60;;;;;;;10.72;64.96;94870.97;4214166;28;20040;-58
2022/09/22 07:05:23;;;;;;;7.57;6.53;;;;;;;10.95;64.55;94876.50;4214074;28;20064;-58
2022/09/22 07:07:30;;;;;;;7.93;5.95;;;;;;;11.01;63.75;94865.38;4213099;28;20417;-61
2022/09/22 07:09:32;;;;;;;8.40;6.28;;;;;;;11.04;63.61;94872.94;4213856;28;20040;-59
2022/09/22 07:11:34;;;;;;;6.63;5.93;;;;;;;11.15;63.46;94876.25;4212513;28;20079;-59
2022/09/22 07:13:41;;;;;;;6.40;5.70;;;;;;;11.11;63.34;94869.69;4212462;28;20672;-59
2022/09/22 07:15:43;;;;;;;6.60;5.63;;;;;;;11.22;63.59;94882.50;4211423;28;20075;-60
2022/09/22 07:17:50;;;;;;;8.43;5.70;;;;;;;11.18;63.42;94875.91;4212638;28;20051;-59
2022/09/22 07:19:55;;;;;;;6.53;5.82;;;;;;;11.43;62.97;94875.03;4212821;28;20075;-60
2022/09/22 07:21:57;;;;;;;9.50;6.55;;;;;;;11.70;62.06;94875.72;4213157;28;20044;-58
2022/09/22 07:23:58;;;;;;;7.65;6.10;;;;;;;11.55;62.04;94864.22;4212398;28;20131;-58
2022/09/22 07:26:10;;;;;;;7.30;5.72;;;;;;;11.68;61.67;94862.78;4212822;28;20055;-58
2022/09/22 07:28:12;;;;;;;11.52;5.63;;;;;;;11.90;61.13;94867.59;4212905;28;20431;-60
2022/09/22 07:30:14;;;;;;;9.10;6.05;;;;;;;11.85;60.99;94863.63;4209622;28;20049;-59
2022/09/22 07:32:16;;;;;;;7.63;5.57;;;;;;;11.36;61.29;94870.59;4203750;28;20658;-60
2022/09/22 07:34:18;;;;;;;7.45;5.45;;;;;;;10.76;63.44;94872.31;4203796;28;20119;-59
2022/09/22 07:36:21;;;;;;;6.65;5.10;;;;;;;10.95;62.63;94868.63;4202497;28;20110;-60
2022/09/22 07:38:28;;;;;;;5.75;5.07;;;;;;;11.12;62.00;94868.69;4199810;28;20076;-59
2022/09/22 07:40:31;;;;;;;6.97;5.07;;;;;;;11.25;61.79;94872.53;4206244;28;20148;-68
2022/09/22 07:42:33;;;;;;;9.88;5.70;;;;;;;11.55;61.71;94870.31;4213510;28;20080;-69
2022/09/22 07:46:55;;;;;;;16.75;8.63;;;;;;;11.87;60.86;94861.66;4195660;28;20052;-67
2022/09/22 07:48:57;;;;;;;9.93;6.10;;;;;;;11.45;61.59;94875.69;4197619;28;20068;-67
2022/09/22 07:50:59;;;;;;;11.85;7.35;;;;;;;11.46;62.04;94869.47;4210356;28;20075;-66
2022/09/22 07:53:01;;;;;;;8.32;4.95;;;;;;;11.95;60.81;94862.69;4212293;28;20044;-67
2022/09/22 07:55:03;;;;;;;6.28;4.82;;;;;;;12.23;59.35;94866.59;4213005;28;20048;-67
2022/09/22 07:57:08;;;;;;;5.00;4.03;;;;;;;12.42;58.24;94854.13;4212217;28;20047;-66
2022/09/22 07:59:12;;;;;;;5.30;3.95;;;;;;;12.51;56.86;94863.63;4201120;28;20117;-67
2022/09/22 08:01:13;;;;;;;;;;;;;;;12.45;56.76;94872.19;4197036;28;20143;-66
2022/09/22 08:03:15;;;;;;;9.80;4.95;;;;;;;11.83;58.03;94886.59;4204464;28;19924;-58
2022/09/22 08:05:17;;;;;;;10.18;5.53;;;;;;;11.66;59.33;94867.38;4203715;28;20139;-60
2022/09/22 08:07:18;;;;;;;9.20;5.10;;;;;;;11.80;59.27;94872.97;4204647;28;20050;-60
2022/09/22 08:09:21;;;;;;;7.78;5.30;;;;;;;11.87;58.73;94866.91;4197994;28;20589;-59
2022/09/22 08:11:25;;;;;;;6.72;4.25;;;;;;;11.76;59.37;94871.66;4202780;28;20044;-58
2022/09/22 08:13:27;;;;;;;;;;;;;;;12.01;59.34;94864.66;4203895;28;20108;-61
2022/09/22 08:15:28;;;;;;;5.50;4.18;;;;;;;12.26;58.56;94863.66;4197057;28;19986;-61
2022/09/22 08:17:30;;;;;;;5.00;4.10;;;;;;;12.32;58.68;94863.97;4199572;28;20055;-59
2022/09/22 08:19:32;;;;;;;7.22;4.95;;;;;;;12.07;58.92;94867.44;4207285;28;20516;-59
2022/09/22 08:21:34;;;;;;;6.88;4.05;;;;;;;12.20;58.92;94871.41;4198075;28;20405;-60
2022/09/22 08:23:36;;;;;;;7.68;4.43;;;;;;;11.90;58.61;94865.78;4196929;28;20085;-58
2022/09/22 08:25:39;;;;;;;5.40;4.25;;;;;;;11.98;58.62;94862.34;4199298;28;20048;-63
2022/09/22 08:27:40;;;;;;;5.57;3.67;;;;;;;12.13;58.16;94860.72;4207270;28;20064;-61
2022/09/22 08:29:42;;;;;;;4.40;3.72;;;;;;;11.70;57.25;94870.47;4212764;28;20043;-60
2022/09/22 08:31:45;;;;;;;4.40;3.70;;;;;;;11.58;58.08;94861.28;4215976;28;20048;-58
2022/09/22 08:33:48;;;;;;;4.60;3.80;;;;;;;11.62;58.12;94860.00;4211905;28;20052;-61
2022/09/22 08:35:54;;;;;;;4.72;3.97;;;;;;;11.78;57.95;94851.31;4196442;28;20131;-60
2022/09/22 08:37:56;;;;;;;6.78;4.68;;;;;;;12.08;57.77;94852.50;4196076;28;20135;-58
2022/09/22 08:39:58;;;;;;;5.65;3.80;;;;;;;12.61;56.99;94845.06;4195741;28;20477;-59
2022/09/22 08:42:08;;;;;;;8.32;6.20;;;;;;;13.00;54.67;94842.47;4208726;28;20139;-60
2022/09/22 08:44:09;;;;;;;4.75;3.80;;;;;;;13.24;53.15;94838.09;4194661;28;20075;-58
2022/09/22 08:46:11;;;;;;;5.85;2.78;;;;;;;13.55;51.71;94843.41;4194300;28;20072;-59
2022/09/22 08:53:12;;;;;;;2.63;1.95;;;;;;;14.12;49.39;94835.06;4211439;28;20401;-62
2022/09/22 08:55:23;;;;;;;3.88;2.47;;;;;;;14.19;49.08;94851.00;4194289;28;20079;-61
2022/09/22 08:57:36;;;;;;;4.65;2.33;;;;;;;14.20;49.03;94836.03;4195677;28;20080;-61
2022/09/22 08:59:52;;;;;;;3.03;2.28;;;;;;;14.21;49.13;94833.19;4194581;28;20086;-61
2022/09/22 09:02:29;;;;;;;6.22;2.40;;;;;;;14.21;49.41;94832.38;4210022;28;20052;-61
2022/09/22 09:04:48;;;;;;;7.32;3.25;;;;;;;14.31;49.59;94831.13;4210754;28;20047;-60
2022/09/22 09:07:18;;;;;;;3.60;2.80;;;;;;;13.89;50.42;94836.91;4201395;28;20111;-61
2022/09/22 09:09:49;;;;;;;5.30;2.90;;;;;;;13.76;50.78;94840.13;4203693;28;20131;-62
2022/09/22 09:12:23;;;;;;;4.28;3.28;;;;;;;13.42;51.41;94840.50;4195283;28;20083;-59
2022/09/22 09:14:29;;;;;;;7.30;3.20;;;;;;;13.06;52.49;94841.78;4201338;28;20087;-58
2022/09/22 09:16:54;;;;;;;12.40;3.50;;;;;;;13.32;52.56;94833.66;4208055;28;20056;-61
2022/09/22 09:19:10;;;;;;;7.03;3.60;;;;;;;13.47;52.06;94833.72;4199213;28;20657;-62
2022/09/22 09:21:13;;;;;;;5.13;3.10;;;;;;;13.71;51.63;94829.31;4210614;28;20107;-59
2022/09/22 09:23:17;;;;;;;5.07;2.97;;;;;;;13.64;50.75;94828.38;4198422;28;20110;-60
2022/09/22 09:25:40;;;;;;;6.28;3.38;;;;;;;14.05;50.63;94826.25;4199431;28;20051;-59
2022/09/22 09:27:45;;;;;;;7.53;2.97;;;;;;;14.48;49.89;94820.44;4211976;28;20133;-59
2022/09/22 09:29:53;;;;;;;3.22;2.30;;;;;;;14.89;48.57;94817.41;4210488;28;20075;-59
2022/09/22 09:31:56;;;;;;;4.05;2.20;;;;;;;15.07;46.58;94814.38;4215730;28;20143;-58
2022/09/22 09:34:01;;;;;;;3.28;2.08;;;;;;;14.62;47.12;94810.94;4209786;28;20055;-59
2022/09/22 09:36:03;;;;;;;2.58;2.13;;;;;;;14.84;47.34;94812.69;4210491;28;20051;-61
2022/09/22 09:38:08;;;;;;;3.60;2.22;;;;;;;15.14;46.58;94810.84;4195111;28;20485;-59
2022/09/22 09:40:14;;;;;;;4.68;2.00;;;;;;;15.31;45.05;94821.16;4193765;28;20071;-60
2022/09/22 09:42:30;;;;;;;2.00;1.60;;;;;;;15.56;43.62;94819.81;4195189;28;20494;-60
2022/09/22 09:44:37;;;;;;;2.55;1.83;;;;;;;15.44;44.39;94818.66;4195686;28;20052;-62
2022/09/22 09:46:42;;;;;;;2.00;1.40;;;;;;;15.59;42.74;94802.78;4193006;28;20087;-61
2022/09/22 09:49:09;;;;;;;2.03;1.70;;;;;;;15.92;42.62;94808.44;4195370;28;20045;-60
2022/09/22 09:51:11;;;;;;;2.10;1.55;;;;;;;15.59;42.90;94810.69;4209844;28;20512;-62
2022/09/22 09:53:36;;;;;;;1.98;1.23;;;;;;;15.34;42.92;94805.78;4211311;28;20123;-60
2022/09/22 09:55:41;;;;;;;2.97;1.83;;;;;;;15.64;43.33;94799.56;4211073;28;20400;-58
2022/09/22 09:58:01;;;;;;;2.47;1.52;;;;;;;16.00;42.89;94802.19;4209202;28;20053;-61
2022/09/22 10:00:30;;;;;;;3.20;2.05;;;;;;;16.22;43.12;94805.66;4209315;28;20151;-61
2022/09/22 10:02:36;;;;;;;2.90;1.77;;;;;;;16.40;42.76;94796.41;4209248;28;20083;-61